PWSweather.com
Personal Weather Stations
Station Observations
MENWDWX1
Menstrie, ScotlandGB

MenstrieScotlandGB

Lat: 56.148322, Lon: -3.85483

Elevation: 62

Station Type: Davis Vantage Pro 2

High Low Average
Temperature 60.8°F16.0°C 49.1°F9.5°C 56.6°F13.7°C
Dew Point 53.3°F11.8°C 42.2°F5.7°C 48.0°F8.9°C
Winds 24.2 mph 38.9 kmh 1.2 mph 1.9 kmh 10.0 mph WSW16.1 kmh WSW
Wind Gusts 42.6 mph68.6 kmh 2.3 mph3.7 kmh 17.0 mph27.4 kmh
Humidity 79% 60% 73%
Pressure 29.78 in1008.5 mb 29.11 in985.8 mb -
Precipitation 0.07 in1.8 mm - -
Hour Temp Dew Point Humidity Winds Wind Gusts Pressure Precip Precip Rate Daily Precip Total
12:00 AM 56.3°F13.5°C 49.5°F9.7°C 78% 4.6 mph SSE7.4 kmh SSE 8.1 mph13.0 kmh 29.37 in994.6 mb - 0.00 in0.0 mm 0.01 in0.3 mm
12:05 AM 56.3°F13.5°C 49.5°F9.7°C 78% 5.8 mph S9.3 kmh S 10.4 mph16.7 kmh 29.36 in994.2 mb - 0.00 in0.0 mm 0.01 in0.3 mm
12:10 AM 56.4°F13.6°C 49.6°F9.8°C 78% 9.2 mph S14.8 kmh S 15.0 mph24.1 kmh 29.36 in994.2 mb - 0.00 in0.0 mm 0.01 in0.3 mm
12:15 AM 56.5°F13.6°C 49.7°F9.8°C 78% 6.9 mph SSW11.1 kmh SSW 11.5 mph18.5 kmh 29.36 in994.2 mb - 0.00 in0.0 mm 0.01 in0.3 mm
12:20 AM 56.7°F13.7°C 49.9°F9.9°C 78% 5.8 mph SSW9.3 kmh SSW 9.2 mph14.8 kmh 29.36 in994.2 mb - 0.00 in0.0 mm 0.01 in0.3 mm
12:25 AM 56.8°F13.8°C 50.0°F10.0°C 78% 6.9 mph S11.1 kmh S 11.5 mph18.5 kmh 29.35 in993.9 mb - 0.00 in0.0 mm 0.01 in0.3 mm
12:30 AM 56.8°F13.8°C 50.0°F10.0°C 78% 10.4 mph S16.7 kmh S 16.1 mph25.9 kmh 29.35 in993.9 mb - 0.00 in0.0 mm 0.01 in0.3 mm
12:35 AM 57.0°F13.9°C 50.2°F10.1°C 78% 8.1 mph S13.0 kmh S 18.4 mph29.6 kmh 29.34 in993.6 mb - 0.00 in0.0 mm 0.01 in0.3 mm
12:40 AM 57.1°F13.9°C 50.3°F10.2°C 78% 6.9 mph S11.1 kmh S 13.8 mph22.2 kmh 29.34 in993.6 mb - 0.00 in0.0 mm 0.01 in0.3 mm
12:45 AM 57.1°F13.9°C 50.0°F10.0°C 77% 5.8 mph SSW9.3 kmh SSW 10.4 mph16.7 kmh 29.34 in993.6 mb - 0.00 in0.0 mm 0.01 in0.3 mm
12:50 AM 57.2°F14.0°C 50.1°F10.1°C 77% 4.6 mph S7.4 kmh S 6.9 mph11.1 kmh 29.33 in993.2 mb - 0.00 in0.0 mm 0.01 in0.3 mm
12:55 AM 57.3°F14.1°C 50.5°F10.3°C 78% 5.8 mph SSW9.3 kmh SSW 5.8 mph9.3 kmh 29.33 in993.2 mb - 0.00 in0.0 mm 0.01 in0.3 mm
01:00 AM 57.4°F14.1°C 50.6°F10.3°C 78% 6.9 mph SSW11.1 kmh SSW 11.5 mph18.5 kmh 29.32 in992.9 mb - 0.00 in0.0 mm 0.01 in0.3 mm
01:05 AM 57.5°F14.2°C 50.4°F10.2°C 77% 8.1 mph SSW13.0 kmh SSW 11.5 mph18.5 kmh 29.32 in992.9 mb - 0.00 in0.0 mm 0.01 in0.3 mm
01:10 AM 57.7°F14.3°C 50.5°F10.3°C 77% 6.9 mph SW11.1 kmh SW 11.5 mph18.5 kmh 29.32 in992.9 mb - 0.00 in0.0 mm 0.01 in0.3 mm
01:15 AM 57.6°F14.2°C 50.4°F10.2°C 77% 5.8 mph SSW9.3 kmh SSW 10.4 mph16.7 kmh 29.32 in992.9 mb - 0.00 in0.0 mm 0.01 in0.3 mm
01:20 AM 57.5°F14.2°C 50.7°F10.4°C 78% 8.1 mph SSW13.0 kmh SSW 10.4 mph16.7 kmh 29.31 in992.6 mb - 0.00 in0.0 mm 0.01 in0.3 mm
01:25 AM 57.4°F14.1°C 50.6°F10.3°C 78% 6.9 mph SW11.1 kmh SW 16.1 mph25.9 kmh 29.31 in992.6 mb - 0.01 in0.3 mm 0.02 in0.5 mm
01:30 AM 57.3°F14.1°C 50.5°F10.3°C 78% 6.9 mph SW11.1 kmh SW 12.7 mph20.4 kmh 29.31 in992.6 mb - 0.01 in0.3 mm 0.02 in0.5 mm
01:35 AM 57.3°F14.1°C 50.5°F10.3°C 78% 4.6 mph SW7.4 kmh SW 5.8 mph9.3 kmh 29.30 in992.2 mb - 0.00 in0.0 mm 0.02 in0.5 mm
01:40 AM 57.2°F14.0°C 50.4°F10.2°C 78% 4.6 mph SSW7.4 kmh SSW 11.5 mph18.5 kmh 29.30 in992.2 mb - 0.01 in0.3 mm 0.03 in0.8 mm
01:45 AM 57.2°F14.0°C 50.4°F10.2°C 78% 3.5 mph S5.6 kmh S 6.9 mph11.1 kmh 29.30 in992.2 mb - 0.00 in0.0 mm 0.03 in0.8 mm
01:50 AM 57.2°F14.0°C 50.7°F10.4°C 79% 5.8 mph SSW9.3 kmh SSW 6.9 mph11.1 kmh 29.30 in992.2 mb - 0.00 in0.0 mm 0.03 in0.8 mm
01:55 AM 57.2°F14.0°C 50.7°F10.4°C 79% 4.6 mph S7.4 kmh S 6.9 mph11.1 kmh 29.30 in992.2 mb - 0.01 in0.3 mm 0.03 in0.8 mm
02:00 AM 57.2°F14.0°C 50.7°F10.4°C 79% 4.6 mph SSW7.4 kmh SSW 9.2 mph14.8 kmh 29.30 in992.2 mb - 0.01 in0.3 mm 0.04 in1.0 mm
02:05 AM 57.1°F13.9°C 50.6°F10.3°C 79% 5.8 mph SSW9.3 kmh SSW 10.4 mph16.7 kmh 29.30 in992.2 mb - 0.01 in0.3 mm 0.04 in1.0 mm
02:10 AM 57.2°F14.0°C 50.7°F10.4°C 79% 2.3 mph SW3.7 kmh SW 6.9 mph11.1 kmh 29.29 in991.9 mb - 0.00 in0.0 mm 0.04 in1.0 mm
02:15 AM 57.2°F14.0°C 50.7°F10.4°C 79% 2.3 mph S3.7 kmh S 8.1 mph13.0 kmh 29.29 in991.9 mb - 0.01 in0.3 mm 0.05 in1.3 mm
02:20 AM 57.2°F14.0°C 50.7°F10.4°C 79% 5.8 mph SW9.3 kmh SW 10.4 mph16.7 kmh 29.29 in991.9 mb - 0.01 in0.3 mm 0.05 in1.3 mm
02:25 AM 57.2°F14.0°C 50.7°F10.4°C 79% 1.2 mph ESE1.9 kmh ESE 3.5 mph5.6 kmh 29.28 in991.5 mb - 0.01 in0.3 mm 0.06 in1.5 mm
02:30 AM 57.2°F14.0°C 50.7°F10.4°C 79% 2.3 mph S3.7 kmh S 3.5 mph5.6 kmh 29.27 in991.2 mb - 0.01 in0.3 mm 0.06 in1.5 mm
02:35 AM 57.2°F14.0°C 50.7°F10.4°C 79% 3.5 mph SSE5.6 kmh SSE 4.6 mph7.4 kmh 29.27 in991.2 mb - 0.00 in0.0 mm 0.06 in1.5 mm
02:40 AM 57.3°F14.1°C 50.8°F10.4°C 79% 3.5 mph S5.6 kmh S 4.6 mph7.4 kmh 29.27 in991.2 mb - 0.00 in0.0 mm 0.06 in1.5 mm
02:45 AM 57.3°F14.1°C 50.8°F10.4°C 79% 4.6 mph S7.4 kmh S 10.4 mph16.7 kmh 29.27 in991.2 mb - 0.00 in0.0 mm 0.06 in1.5 mm
02:50 AM 57.3°F14.1°C 50.9°F10.5°C 79% 3.5 mph SSW5.6 kmh SSW 4.6 mph7.4 kmh 29.26 in990.9 mb - 0.01 in0.3 mm 0.07 in1.8 mm
02:55 AM 57.4°F14.1°C 50.9°F10.5°C 79% 4.6 mph WSW7.4 kmh WSW 5.8 mph9.3 kmh 29.26 in990.9 mb - 0.00 in0.0 mm 0.07 in1.8 mm
03:00 AM 57.4°F14.1°C 51.0°F10.6°C 79% 3.5 mph SSW5.6 kmh SSW 6.9 mph11.1 kmh 29.25 in990.5 mb - 0.00 in0.0 mm 0.07 in1.8 mm
03:05 AM 57.5°F14.2°C 51.0°F10.6°C 79% 3.5 mph SSW5.6 kmh SSW 4.6 mph7.4 kmh 29.25 in990.5 mb - 0.00 in0.0 mm 0.07 in1.8 mm
03:10 AM 57.6°F14.2°C 51.1°F10.6°C 79% 3.5 mph SSW5.6 kmh SSW 3.5 mph5.6 kmh 29.24 in990.2 mb - 0.01 in0.3 mm 0.07 in1.8 mm
03:15 AM 57.7°F14.3°C 51.2°F10.7°C 79% 5.8 mph S9.3 kmh S 11.5 mph18.5 kmh 29.24 in990.2 mb - 0.00 in0.0 mm 0.07 in1.8 mm
03:20 AM 57.8°F14.3°C 51.3°F10.7°C 79% 3.5 mph S5.6 kmh S 5.8 mph9.3 kmh 29.23 in989.8 mb - 0.00 in0.0 mm 0.07 in1.8 mm
03:25 AM 57.8°F14.3°C 51.3°F10.7°C 79% 5.8 mph SW9.3 kmh SW 11.5 mph18.5 kmh 29.23 in989.8 mb - 0.00 in0.0 mm 0.07 in1.8 mm
03:30 AM 57.9°F14.4°C 51.1°F10.6°C 78% 4.6 mph SSE7.4 kmh SSE 11.5 mph18.5 kmh 29.22 in989.5 mb - 0.00 in0.0 mm 0.07 in1.8 mm
03:35 AM 58.0°F14.4°C 51.2°F10.7°C 78% 4.6 mph SSW7.4 kmh SSW 10.4 mph16.7 kmh 29.22 in989.5 mb - 0.00 in0.0 mm 0.07 in1.8 mm
03:40 AM 58.2°F14.6°C 51.4°F10.8°C 78% 4.6 mph SSW7.4 kmh SSW 5.8 mph9.3 kmh 29.22 in989.5 mb - 0.00 in0.0 mm 0.07 in1.8 mm
03:45 AM 58.3°F14.6°C 51.5°F10.8°C 78% 4.6 mph WSW7.4 kmh WSW 8.1 mph13.0 kmh 29.22 in989.5 mb - 0.00 in0.0 mm 0.07 in1.8 mm
03:50 AM 58.4°F14.7°C 51.2°F10.7°C 77% 4.6 mph SW7.4 kmh SW 8.1 mph13.0 kmh 29.21 in989.2 mb - 0.00 in0.0 mm 0.07 in1.8 mm
03:55 AM 58.5°F14.7°C 51.3°F10.7°C 77% 4.6 mph SSW7.4 kmh SSW 8.1 mph13.0 kmh 29.21 in989.2 mb - 0.00 in0.0 mm 0.07 in1.8 mm
04:00 AM 58.6°F14.8°C 51.4°F10.8°C 77% 4.6 mph WSW7.4 kmh WSW 8.1 mph13.0 kmh 29.21 in989.2 mb - 0.00 in0.0 mm 0.07 in1.8 mm
04:05 AM 58.8°F14.9°C 51.6°F10.9°C 77% 4.6 mph SSW7.4 kmh SSW 11.5 mph18.5 kmh 29.20 in988.8 mb - 0.00 in0.0 mm 0.07 in1.8 mm
04:10 AM 59.0°F15.0°C 51.8°F11.0°C 77% 3.5 mph WSW5.6 kmh WSW 6.9 mph11.1 kmh 29.20 in988.8 mb - 0.00 in0.0 mm 0.07 in1.8 mm
04:15 AM 59.1°F15.1°C 51.9°F11.1°C 77% 4.6 mph SSW7.4 kmh SSW 10.4 mph16.7 kmh 29.20 in988.8 mb - 0.00 in0.0 mm 0.07 in1.8 mm
04:20 AM 59.0°F15.0°C 51.8°F11.0°C 77% 2.3 mph NW3.7 kmh NW 3.5 mph5.6 kmh 29.19 in988.5 mb - 0.00 in0.0 mm 0.07 in1.8 mm
04:25 AM 58.9°F14.9°C 51.7°F10.9°C 77% 3.5 mph SSW5.6 kmh SSW 8.1 mph13.0 kmh 29.19 in988.5 mb - 0.00 in0.0 mm 0.07 in1.8 mm
04:30 AM 59.1°F15.1°C 51.9°F11.1°C 77% 4.6 mph S7.4 kmh S 5.8 mph9.3 kmh 29.18 in988.1 mb - 0.00 in0.0 mm 0.07 in1.8 mm
04:35 AM 59.2°F15.1°C 52.0°F11.1°C 77% 3.5 mph SW5.6 kmh SW 3.5 mph5.6 kmh 29.17 in987.8 mb - 0.00 in0.0 mm 0.07 in1.8 mm
04:40 AM 59.2°F15.1°C 52.0°F11.1°C 77% 4.6 mph SW7.4 kmh SW 8.1 mph13.0 kmh 29.17 in987.8 mb - 0.00 in0.0 mm 0.07 in1.8 mm
04:45 AM 59.3°F15.2°C 52.1°F11.2°C 77% 6.9 mph SSW11.1 kmh SSW 12.7 mph20.4 kmh 29.17 in987.8 mb - 0.00 in0.0 mm 0.07 in1.8 mm
04:50 AM 59.8°F15.4°C 52.5°F11.4°C 77% 4.6 mph SSW7.4 kmh SSW 9.2 mph14.8 kmh 29.16 in987.5 mb - 0.00 in0.0 mm 0.07 in1.8 mm
04:55 AM 59.9°F15.5°C 52.6°F11.4°C 77% 9.2 mph SW14.8 kmh SW 17.3 mph27.8 kmh 29.16 in987.5 mb - 0.00 in0.0 mm 0.07 in1.8 mm
05:00 AM 60.1°F15.6°C 52.9°F11.6°C 77% 10.4 mph SW16.7 kmh SW 19.6 mph31.5 kmh 29.15 in987.1 mb - 0.00 in0.0 mm 0.07 in1.8 mm
05:05 AM 60.2°F15.7°C 53.0°F11.7°C 77% 6.9 mph SW11.1 kmh SW 10.4 mph16.7 kmh 29.15 in987.1 mb - 0.00 in0.0 mm 0.07 in1.8 mm
05:10 AM 60.3°F15.7°C 53.1°F11.7°C 77% 8.1 mph SW13.0 kmh SW 15.0 mph24.1 kmh 29.14 in986.8 mb - 0.00 in0.0 mm 0.07 in1.8 mm
05:15 AM 60.5°F15.8°C 53.3°F11.8°C 77% 17.3 mph WSW27.8 kmh WSW 21.9 mph35.2 kmh 29.14 in986.8 mb - 0.00 in0.0 mm 0.07 in1.8 mm
05:20 AM 60.8°F16.0°C 53.1°F11.7°C 76% 13.8 mph SW22.2 kmh SW 18.4 mph29.6 kmh 29.14 in986.8 mb - 0.00 in0.0 mm 0.07 in1.8 mm
05:25 AM 60.6°F15.9°C 53.3°F11.8°C 77% 11.5 mph SW18.5 kmh SW 21.9 mph35.2 kmh 29.14 in986.8 mb - 0.00 in0.0 mm 0.07 in1.8 mm
05:30 AM 60.4°F15.8°C 53.2°F11.8°C 77% 13.8 mph SW22.2 kmh SW 19.6 mph31.5 kmh 29.14 in986.8 mb - 0.00 in0.0 mm 0.07 in1.8 mm
05:35 AM 60.2°F15.7°C 53.0°F11.7°C 77% 10.4 mph SW16.7 kmh SW 20.7 mph33.3 kmh 29.13 in986.5 mb - 0.00 in0.0 mm 0.07 in1.8 mm
05:40 AM 59.9°F15.5°C 52.7°F11.5°C 77% 9.2 mph WSW14.8 kmh WSW 15.0 mph24.1 kmh 29.13 in986.5 mb - 0.00 in0.0 mm 0.07 in1.8 mm
05:45 AM 59.7°F15.4°C 52.5°F11.4°C 77% 10.4 mph SW16.7 kmh SW 18.4 mph29.6 kmh 29.13 in986.5 mb - 0.00 in0.0 mm 0.07 in1.8 mm
05:50 AM 59.6°F15.3°C 52.4°F11.3°C 77% 17.3 mph SW27.8 kmh SW 26.5 mph42.6 kmh 29.13 in986.5 mb - 0.00 in0.0 mm 0.07 in1.8 mm
05:55 AM 59.6°F15.3°C 52.3°F11.3°C 77% 15.0 mph SW24.1 kmh SW 25.3 mph40.7 kmh 29.12 in986.1 mb - 0.00 in0.0 mm 0.07 in1.8 mm
06:00 AM 59.5°F15.3°C 52.3°F11.3°C 77% 18.4 mph SW29.6 kmh SW 28.8 mph46.3 kmh 29.13 in986.5 mb - 0.00 in0.0 mm 0.07 in1.8 mm
06:05 AM 59.5°F15.3°C 51.9°F11.1°C 76% 19.6 mph WSW31.5 kmh WSW 32.2 mph51.8 kmh 29.13 in986.5 mb - 0.00 in0.0 mm 0.07 in1.8 mm
06:10 AM 59.0°F15.0°C 51.8°F11.0°C 77% 20.7 mph WSW33.3 kmh WSW 27.6 mph44.4 kmh 29.14 in986.8 mb - 0.00 in0.0 mm 0.07 in1.8 mm
06:15 AM 58.4°F14.7°C 51.2°F10.7°C 77% 13.8 mph SW22.2 kmh SW 24.2 mph38.9 kmh 29.13 in986.5 mb - 0.00 in0.0 mm 0.07 in1.8 mm
06:20 AM 58.0°F14.4°C 50.8°F10.4°C 77% 19.6 mph WSW31.5 kmh WSW 31.1 mph50.1 kmh 29.13 in986.5 mb - 0.00 in0.0 mm 0.07 in1.8 mm
06:25 AM 58.0°F14.4°C 50.5°F10.3°C 76% 16.1 mph WSW25.9 kmh WSW 20.7 mph33.3 kmh 29.13 in986.5 mb - 0.00 in0.0 mm 0.07 in1.8 mm
06:30 AM 58.0°F14.4°C 50.5°F10.3°C 76% 21.9 mph SW35.2 kmh SW 42.6 mph68.6 kmh 29.12 in986.1 mb - 0.00 in0.0 mm 0.07 in1.8 mm
06:35 AM 58.3°F14.6°C 50.7°F10.4°C 76% 18.4 mph SW29.6 kmh SW 26.5 mph42.6 kmh 29.12 in986.1 mb - 0.00 in0.0 mm 0.07 in1.8 mm
06:40 AM 58.5°F14.7°C 50.9°F10.5°C 76% 13.8 mph SW22.2 kmh SW 25.3 mph40.7 kmh 29.13 in986.5 mb - 0.00 in0.0 mm 0.07 in1.8 mm
06:45 AM 58.3°F14.6°C 50.4°F10.2°C 75% 18.4 mph WSW29.6 kmh WSW 24.2 mph38.9 kmh 29.13 in986.5 mb - 0.00 in0.0 mm 0.07 in1.8 mm
06:50 AM 58.2°F14.6°C 50.3°F10.2°C 75% 17.3 mph WSW27.8 kmh WSW 26.5 mph42.6 kmh 29.13 in986.5 mb - 0.00 in0.0 mm 0.07 in1.8 mm
06:55 AM 58.3°F14.6°C 50.4°F10.2°C 75% 17.3 mph SW27.8 kmh SW 26.5 mph42.6 kmh 29.12 in986.1 mb - 0.00 in0.0 mm 0.07 in1.8 mm
07:00 AM 58.3°F14.6°C 50.4°F10.2°C 75% 15.0 mph SW24.1 kmh SW 28.8 mph46.3 kmh 29.12 in986.1 mb - 0.00 in0.0 mm 0.07 in1.8 mm
07:05 AM 58.2°F14.6°C 50.7°F10.4°C 76% 16.1 mph SW25.9 kmh SW 20.7 mph33.3 kmh 29.12 in986.1 mb - 0.00 in0.0 mm 0.07 in1.8 mm
07:10 AM 58.1°F14.5°C 50.6°F10.3°C 76% 17.3 mph SW27.8 kmh SW 31.1 mph50.1 kmh 29.12 in986.1 mb - 0.00 in0.0 mm 0.07 in1.8 mm
07:15 AM 58.3°F14.6°C 50.7°F10.4°C 76% 17.3 mph WSW27.8 kmh WSW 31.1 mph50.1 kmh 29.12 in986.1 mb - 0.00 in0.0 mm 0.07 in1.8 mm
07:20 AM 58.4°F14.7°C 50.9°F10.5°C 76% 16.1 mph WSW25.9 kmh WSW 26.5 mph42.6 kmh 29.12 in986.1 mb - 0.00 in0.0 mm 0.07 in1.8 mm
07:25 AM 58.6°F14.8°C 51.1°F10.6°C 76% 11.5 mph SW18.5 kmh SW 23.0 mph37.0 kmh 29.12 in986.1 mb - 0.00 in0.0 mm 0.07 in1.8 mm
07:30 AM 58.3°F14.6°C 50.8°F10.4°C 76% 15.0 mph SW24.1 kmh SW 21.9 mph35.2 kmh 29.12 in986.1 mb - 0.00 in0.0 mm 0.07 in1.8 mm
07:35 AM 57.7°F14.3°C 50.5°F10.3°C 77% 12.7 mph SW20.4 kmh SW 19.6 mph31.5 kmh 29.12 in986.1 mb - 0.00 in0.0 mm 0.07 in1.8 mm
07:40 AM 57.1°F13.9°C 50.0°F10.0°C 77% 11.5 mph WSW18.5 kmh WSW 26.5 mph42.6 kmh 29.12 in986.1 mb - 0.00 in0.0 mm 0.07 in1.8 mm
07:45 AM 56.6°F13.7°C 49.5°F9.7°C 77% 10.4 mph SW16.7 kmh SW 13.8 mph22.2 kmh 29.12 in986.1 mb - 0.00 in0.0 mm 0.07 in1.8 mm
07:50 AM 56.4°F13.6°C 49.2°F9.6°C 77% 12.7 mph WSW20.4 kmh WSW 27.6 mph44.4 kmh 29.12 in986.1 mb - 0.00 in0.0 mm 0.07 in1.8 mm
07:55 AM 56.2°F13.4°C 49.1°F9.5°C 77% 15.0 mph WSW24.1 kmh WSW 24.2 mph38.9 kmh 29.12 in986.1 mb - 0.00 in0.0 mm 0.07 in1.8 mm
08:00 AM 56.6°F13.7°C 49.5°F9.7°C 77% 15.0 mph SW24.1 kmh SW 19.6 mph31.5 kmh 29.11 in985.8 mb - 0.00 in0.0 mm 0.07 in1.8 mm
08:05 AM 56.9°F13.8°C 49.8°F9.9°C 77% 15.0 mph WSW24.1 kmh WSW 20.7 mph33.3 kmh 29.12 in986.1 mb - 0.00 in0.0 mm 0.07 in1.8 mm
08:10 AM 57.2°F14.0°C 50.1°F10.1°C 77% 13.8 mph SW22.2 kmh SW 21.9 mph35.2 kmh 29.11 in985.8 mb - 0.00 in0.0 mm 0.07 in1.8 mm
08:15 AM 57.3°F14.1°C 50.2°F10.1°C 77% 12.7 mph SW20.4 kmh SW 20.7 mph33.3 kmh 29.12 in986.1 mb - 0.00 in0.0 mm 0.07 in1.8 mm
08:20 AM 57.4°F14.1°C 50.2°F10.1°C 77% 20.7 mph SW33.3 kmh SW 28.8 mph46.3 kmh 29.12 in986.1 mb - 0.00 in0.0 mm 0.07 in1.8 mm
08:25 AM 57.8°F14.3°C 50.6°F10.3°C 77% 15.0 mph SW24.1 kmh SW 26.5 mph42.6 kmh 29.12 in986.1 mb - 0.00 in0.0 mm 0.07 in1.8 mm
08:30 AM 58.0°F14.4°C 50.8°F10.4°C 77% 18.4 mph WSW29.6 kmh WSW 24.2 mph38.9 kmh 29.12 in986.1 mb - 0.00 in0.0 mm 0.07 in1.8 mm
08:35 AM 57.8°F14.3°C 50.3°F10.2°C 76% 24.2 mph WSW38.9 kmh WSW 34.5 mph55.5 kmh 29.12 in986.1 mb - 0.00 in0.0 mm 0.07 in1.8 mm
08:40 AM 58.0°F14.4°C 50.5°F10.3°C 76% 20.7 mph WSW33.3 kmh WSW 33.4 mph53.8 kmh 29.13 in986.5 mb - 0.00 in0.0 mm 0.07 in1.8 mm
08:45 AM 58.3°F14.6°C 50.4°F10.2°C 75% 17.3 mph SW27.8 kmh SW 26.5 mph42.6 kmh 29.14 in986.8 mb - 0.00 in0.0 mm 0.07 in1.8 mm
08:50 AM 59.1°F15.1°C 51.2°F10.7°C 75% 18.4 mph WSW29.6 kmh WSW 27.6 mph44.4 kmh 29.16 in987.5 mb - 0.00 in0.0 mm 0.07 in1.8 mm
08:55 AM 59.5°F15.3°C 51.2°F10.7°C 74% 12.7 mph WSW20.4 kmh WSW 26.5 mph42.6 kmh 29.16 in987.5 mb - 0.00 in0.0 mm 0.07 in1.8 mm
09:00 AM 58.7°F14.8°C 50.5°F10.3°C 74% 17.3 mph WSW27.8 kmh WSW 26.5 mph42.6 kmh 29.17 in987.8 mb - 0.00 in0.0 mm 0.07 in1.8 mm
09:05 AM 57.8°F14.3°C 50.0°F10.0°C 75% 12.7 mph WSW20.4 kmh WSW 24.2 mph38.9 kmh 29.18 in988.1 mb - 0.00 in0.0 mm 0.07 in1.8 mm
09:10 AM 57.8°F14.3°C 49.9°F9.9°C 75% 18.4 mph WSW29.6 kmh WSW 34.5 mph55.5 kmh 29.18 in988.1 mb - 0.00 in0.0 mm 0.07 in1.8 mm
09:15 AM 58.8°F14.9°C 50.5°F10.3°C 74% 17.3 mph WSW27.8 kmh WSW 21.9 mph35.2 kmh 29.19 in988.5 mb - 0.00 in0.0 mm 0.07 in1.8 mm
09:20 AM 59.3°F15.2°C 50.6°F10.3°C 73% 18.4 mph WSW29.6 kmh WSW 34.5 mph55.5 kmh 29.19 in988.5 mb - 0.00 in0.0 mm 0.07 in1.8 mm
09:25 AM 59.0°F15.0°C 50.4°F10.2°C 73% 18.4 mph WSW29.6 kmh WSW 33.4 mph53.8 kmh 29.21 in989.2 mb - 0.00 in0.0 mm 0.07 in1.8 mm
09:30 AM 59.3°F15.2°C 50.7°F10.4°C 73% 18.4 mph WSW29.6 kmh WSW 32.2 mph51.8 kmh 29.22 in989.5 mb - 0.00 in0.0 mm 0.07 in1.8 mm
09:35 AM 59.4°F15.2°C 50.4°F10.2°C 72% 13.8 mph WSW22.2 kmh WSW 27.6 mph44.4 kmh 29.22 in989.5 mb - 0.00 in0.0 mm 0.07 in1.8 mm
09:40 AM 58.3°F14.6°C 49.7°F9.8°C 73% 16.1 mph W25.9 kmh W 26.5 mph42.6 kmh 29.23 in989.8 mb - 0.00 in0.0 mm 0.07 in1.8 mm
09:45 AM 57.5°F14.2°C 50.0°F10.0°C 76% 10.4 mph W16.7 kmh W 18.4 mph29.6 kmh 29.25 in990.5 mb - 0.00 in0.0 mm 0.07 in1.8 mm
09:50 AM 58.0°F14.4°C 50.5°F10.3°C 76% 18.4 mph WSW29.6 kmh WSW 28.8 mph46.3 kmh 29.25 in990.5 mb - 0.00 in0.0 mm 0.07 in1.8 mm
09:55 AM 58.8°F14.9°C 50.9°F10.5°C 75% 16.1 mph WSW25.9 kmh WSW 26.5 mph42.6 kmh 29.26 in990.9 mb - 0.00 in0.0 mm 0.07 in1.8 mm
10:00 AM 58.5°F14.7°C 50.2°F10.1°C 74% 16.1 mph WSW25.9 kmh WSW 27.6 mph44.4 kmh 29.27 in991.2 mb - 0.00 in0.0 mm 0.07 in1.8 mm
10:05 AM 58.0°F14.4°C 50.1°F10.1°C 75% 13.8 mph WSW22.2 kmh WSW 27.6 mph44.4 kmh 29.28 in991.5 mb - 0.00 in0.0 mm 0.07 in1.8 mm
10:10 AM 57.7°F14.3°C 49.8°F9.9°C 75% 18.4 mph WSW29.6 kmh WSW 26.5 mph42.6 kmh 29.29 in991.9 mb - 0.00 in0.0 mm 0.07 in1.8 mm
10:15 AM 57.6°F14.2°C 49.4°F9.7°C 74% 20.7 mph WSW33.3 kmh WSW 34.5 mph55.5 kmh 29.30 in992.2 mb - 0.00 in0.0 mm 0.07 in1.8 mm
10:20 AM 57.4°F14.1°C 49.2°F9.6°C 74% 17.3 mph WSW27.8 kmh WSW 31.1 mph50.1 kmh 29.31 in992.6 mb - 0.00 in0.0 mm 0.07 in1.8 mm
10:25 AM 57.7°F14.3°C 49.5°F9.7°C 74% 15.0 mph WSW24.1 kmh WSW 27.6 mph44.4 kmh 29.32 in992.9 mb - 0.00 in0.0 mm 0.07 in1.8 mm
10:30 AM 58.5°F14.7°C 50.6°F10.3°C 75% 16.1 mph WSW25.9 kmh WSW 25.3 mph40.7 kmh 29.33 in993.2 mb - 0.00 in0.0 mm 0.07 in1.8 mm
10:35 AM 59.4°F15.2°C 50.7°F10.4°C 73% 15.0 mph WSW24.1 kmh WSW 23.0 mph37.0 kmh 29.34 in993.6 mb - 0.00 in0.0 mm 0.07 in1.8 mm
10:40 AM 59.3°F15.2°C 50.6°F10.3°C 73% 19.6 mph WSW31.5 kmh WSW 25.3 mph40.7 kmh 29.35 in993.9 mb - 0.00 in0.0 mm 0.07 in1.8 mm
10:45 AM 58.6°F14.8°C 50.4°F10.2°C 74% 10.4 mph W16.7 kmh W 17.3 mph27.8 kmh 29.37 in994.6 mb - 0.00 in0.0 mm 0.07 in1.8 mm
10:50 AM 57.8°F14.3°C 49.5°F9.7°C 74% 17.3 mph W27.8 kmh W 28.8 mph46.3 kmh 29.37 in994.6 mb - 0.00 in0.0 mm 0.07 in1.8 mm
10:55 AM 57.0°F13.9°C 49.1°F9.5°C 75% 18.4 mph WSW29.6 kmh WSW 25.3 mph40.7 kmh 29.38 in994.9 mb - 0.00 in0.0 mm 0.07 in1.8 mm
11:00 AM 56.5°F13.6°C 49.0°F9.4°C 76% 16.1 mph WSW25.9 kmh WSW 29.9 mph48.1 kmh 29.38 in994.9 mb - 0.00 in0.0 mm 0.07 in1.8 mm
11:05 AM 56.5°F13.6°C 49.0°F9.4°C 76% 17.3 mph W27.8 kmh W 18.4 mph29.6 kmh 29.39 in995.3 mb - 0.00 in0.0 mm 0.07 in1.8 mm
11:10 AM 56.8°F13.8°C 49.4°F9.7°C 76% 11.5 mph W18.5 kmh W 21.9 mph35.2 kmh 29.40 in995.6 mb - 0.00 in0.0 mm 0.07 in1.8 mm
11:15 AM 56.6°F13.7°C 48.4°F9.1°C 74% 18.4 mph W29.6 kmh W 31.1 mph50.1 kmh 29.41 in995.9 mb - 0.00 in0.0 mm 0.07 in1.8 mm
11:20 AM 56.2°F13.4°C 48.0°F8.9°C 74% 19.6 mph W31.5 kmh W 29.9 mph48.1 kmh 29.41 in995.9 mb - 0.00 in0.0 mm 0.07 in1.8 mm
11:25 AM 56.4°F13.6°C 48.2°F9.0°C 74% 21.9 mph WSW35.2 kmh WSW 36.8 mph59.2 kmh 29.42 in996.3 mb - 0.00 in0.0 mm 0.07 in1.8 mm
11:30 AM 56.8°F13.8°C 48.6°F9.2°C 74% 18.4 mph WSW29.6 kmh WSW 33.4 mph53.8 kmh 29.43 in996.6 mb - 0.00 in0.0 mm 0.07 in1.8 mm
11:35 AM 57.1°F13.9°C 48.1°F8.9°C 72% 19.6 mph W31.5 kmh W 34.5 mph55.5 kmh 29.43 in996.6 mb - 0.00 in0.0 mm 0.07 in1.8 mm
11:40 AM 56.9°F13.8°C 47.5°F8.6°C 71% 16.1 mph W25.9 kmh W 27.6 mph44.4 kmh 29.44 in997.0 mb - 0.00 in0.0 mm 0.07 in1.8 mm
11:45 AM 56.9°F13.8°C 47.6°F8.7°C 71% 16.1 mph WSW25.9 kmh WSW 25.3 mph40.7 kmh 29.44 in997.0 mb - 0.00 in0.0 mm 0.07 in1.8 mm
11:50 AM 57.7°F14.3°C 48.3°F9.1°C 71% 17.3 mph WSW27.8 kmh WSW 28.8 mph46.3 kmh 29.44 in997.0 mb - 0.00 in0.0 mm 0.07 in1.8 mm
11:55 AM 58.5°F14.7°C 48.7°F9.3°C 70% 12.7 mph W20.4 kmh W 21.9 mph35.2 kmh 29.44 in997.0 mb - 0.00 in0.0 mm 0.07 in1.8 mm
12:00 PM 58.8°F14.9°C 47.9°F8.8°C 67% 11.5 mph W18.5 kmh W 17.3 mph27.8 kmh 29.45 in997.3 mb - 0.00 in0.0 mm 0.07 in1.8 mm
12:05 PM 58.9°F14.9°C 46.7°F8.2°C 64% 16.1 mph W25.9 kmh W 26.5 mph42.6 kmh 29.45 in997.3 mb - 0.00 in0.0 mm 0.07 in1.8 mm
12:10 PM 59.0°F15.0°C 46.4°F8.0°C 63% 16.1 mph W25.9 kmh W 23.0 mph37.0 kmh 29.47 in998.0 mb - 0.00 in0.0 mm 0.07 in1.8 mm
12:15 PM 59.4°F15.2°C 47.3°F8.5°C 64% 9.2 mph WSW14.8 kmh WSW 15.0 mph24.1 kmh 29.47 in998.0 mb - 0.00 in0.0 mm 0.07 in1.8 mm
12:20 PM 60.1°F15.6°C 47.0°F8.3°C 62% 17.3 mph WSW27.8 kmh WSW 26.5 mph42.6 kmh 29.48 in998.3 mb - 0.00 in0.0 mm 0.07 in1.8 mm
12:25 PM 60.0°F15.6°C 46.5°F8.1°C 61% 16.1 mph W25.9 kmh W 26.5 mph42.6 kmh 29.48 in998.3 mb - 0.00 in0.0 mm 0.07 in1.8 mm
12:30 PM 59.5°F15.3°C 46.5°F8.1°C 62% 15.0 mph WSW24.1 kmh WSW 27.6 mph44.4 kmh 29.49 in998.6 mb - 0.00 in0.0 mm 0.07 in1.8 mm
12:35 PM 58.6°F14.8°C 46.5°F8.1°C 64% 17.3 mph WSW27.8 kmh WSW 21.9 mph35.2 kmh 29.50 in999.0 mb - 0.00 in0.0 mm 0.07 in1.8 mm
12:40 PM 58.0°F14.4°C 46.7°F8.2°C 66% 12.7 mph WSW20.4 kmh WSW 17.3 mph27.8 kmh 29.51 in999.3 mb - 0.00 in0.0 mm 0.07 in1.8 mm
12:45 PM 57.9°F14.4°C 47.0°F8.3°C 67% 13.8 mph W22.2 kmh W 20.7 mph33.3 kmh 29.51 in999.3 mb - 0.00 in0.0 mm 0.07 in1.8 mm
12:50 PM 57.7°F14.3°C 47.6°F8.7°C 69% 10.4 mph W16.7 kmh W 17.3 mph27.8 kmh 29.51 in999.3 mb - 0.00 in0.0 mm 0.07 in1.8 mm
12:55 PM 57.7°F14.3°C 47.2°F8.4°C 68% 10.4 mph WSW16.7 kmh WSW 12.7 mph20.4 kmh 29.51 in999.3 mb - 0.00 in0.0 mm 0.07 in1.8 mm
01:00 PM 58.0°F14.4°C 47.1°F8.4°C 67% 13.8 mph W22.2 kmh W 27.6 mph44.4 kmh 29.51 in999.3 mb - 0.00 in0.0 mm 0.07 in1.8 mm
01:05 PM 58.6°F14.8°C 47.7°F8.7°C 67% 13.8 mph WSW22.2 kmh WSW 19.6 mph31.5 kmh 29.52 in999.7 mb - 0.00 in0.0 mm 0.07 in1.8 mm
01:10 PM 58.8°F14.9°C 47.8°F8.8°C 67% 16.1 mph WSW25.9 kmh WSW 20.7 mph33.3 kmh 29.52 in999.7 mb - 0.00 in0.0 mm 0.07 in1.8 mm
01:15 PM 58.6°F14.8°C 47.3°F8.5°C 66% 13.8 mph WSW22.2 kmh WSW 26.5 mph42.6 kmh 29.53 in1000.0 mb - 0.00 in0.0 mm 0.07 in1.8 mm
01:20 PM 58.6°F14.8°C 47.3°F8.5°C 66% 18.4 mph WSW29.6 kmh WSW 25.3 mph40.7 kmh 29.54 in1000.3 mb - 0.00 in0.0 mm 0.07 in1.8 mm
01:25 PM 58.4°F14.7°C 47.5°F8.6°C 67% 15.0 mph WSW24.1 kmh WSW 32.2 mph51.8 kmh 29.55 in1000.7 mb - 0.00 in0.0 mm 0.07 in1.8 mm
01:30 PM 58.5°F14.7°C 47.2°F8.4°C 66% 13.8 mph WSW22.2 kmh WSW 21.9 mph35.2 kmh 29.55 in1000.7 mb - 0.00 in0.0 mm 0.07 in1.8 mm
01:35 PM 58.7°F14.8°C 47.4°F8.6°C 66% 15.0 mph W24.1 kmh W 19.6 mph31.5 kmh 29.55 in1000.7 mb - 0.00 in0.0 mm 0.07 in1.8 mm
01:40 PM 59.0°F15.0°C 47.2°F8.4°C 65% 13.8 mph SW22.2 kmh SW 19.6 mph31.5 kmh 29.56 in1001.0 mb - 0.00 in0.0 mm 0.07 in1.8 mm
01:45 PM 58.5°F14.7°C 46.0°F7.8°C 63% 17.3 mph W27.8 kmh W 25.3 mph40.7 kmh 29.57 in1001.4 mb - 0.00 in0.0 mm 0.07 in1.8 mm
01:50 PM 58.0°F14.4°C 45.5°F7.5°C 63% 16.1 mph WSW25.9 kmh WSW 19.6 mph31.5 kmh 29.57 in1001.4 mb - 0.00 in0.0 mm 0.07 in1.8 mm
01:55 PM 58.2°F14.6°C 46.1°F7.8°C 64% 15.0 mph WSW24.1 kmh WSW 23.0 mph37.0 kmh 29.57 in1001.4 mb - 0.00 in0.0 mm 0.07 in1.8 mm
02:00 PM 58.6°F14.8°C 46.5°F8.1°C 64% 15.0 mph WSW24.1 kmh WSW 26.5 mph42.6 kmh 29.57 in1001.4 mb - 0.00 in0.0 mm 0.07 in1.8 mm
02:05 PM 58.4°F14.7°C 45.4°F7.4°C 62% 15.0 mph WSW24.1 kmh WSW 23.0 mph37.0 kmh 29.57 in1001.4 mb - 0.00 in0.0 mm 0.07 in1.8 mm
02:10 PM 58.0°F14.4°C 45.5°F7.5°C 63% 16.1 mph W25.9 kmh W 23.0 mph37.0 kmh 29.58 in1001.7 mb - 0.00 in0.0 mm 0.07 in1.8 mm
02:15 PM 58.0°F14.4°C 46.3°F7.9°C 65% 12.7 mph W20.4 kmh W 26.5 mph42.6 kmh 29.58 in1001.7 mb - 0.00 in0.0 mm 0.07 in1.8 mm
02:20 PM 58.1°F14.5°C 46.0°F7.8°C 64% 15.0 mph WSW24.1 kmh WSW 24.2 mph38.9 kmh 29.58 in1001.7 mb - 0.00 in0.0 mm 0.07 in1.8 mm
02:25 PM 58.1°F14.5°C 46.4°F8.0°C 65% 12.7 mph WSW20.4 kmh WSW 24.2 mph38.9 kmh 29.59 in1002.0 mb - 0.00 in0.0 mm 0.07 in1.8 mm
02:30 PM 58.5°F14.7°C 45.9°F7.7°C 63% 15.0 mph WSW24.1 kmh WSW 23.0 mph37.0 kmh 29.59 in1002.0 mb - 0.00 in0.0 mm 0.07 in1.8 mm
02:35 PM 58.6°F14.8°C 46.5°F8.1°C 64% 12.7 mph WSW20.4 kmh WSW 24.2 mph38.9 kmh 29.60 in1002.4 mb - 0.00 in0.0 mm 0.07 in1.8 mm
02:40 PM 58.5°F14.7°C 46.4°F8.0°C 64% 12.7 mph WSW20.4 kmh WSW 20.7 mph33.3 kmh 29.60 in1002.4 mb - 0.00 in0.0 mm 0.07 in1.8 mm
02:45 PM 58.9°F14.9°C 46.7°F8.2°C 64% 11.5 mph WSW18.5 kmh WSW 13.8 mph22.2 kmh 29.60 in1002.4 mb - 0.00 in0.0 mm 0.07 in1.8 mm
02:50 PM 58.3°F14.6°C 46.2°F7.9°C 64% 15.0 mph WSW24.1 kmh WSW 27.6 mph44.4 kmh 29.61 in1002.7 mb - 0.00 in0.0 mm 0.07 in1.8 mm
02:55 PM 57.8°F14.3°C 46.5°F8.1°C 66% 10.4 mph WSW16.7 kmh WSW 19.6 mph31.5 kmh 29.61 in1002.7 mb - 0.00 in0.0 mm 0.07 in1.8 mm
03:00 PM 57.9°F14.4°C 46.2°F7.9°C 65% 13.8 mph WSW22.2 kmh WSW 21.9 mph35.2 kmh 29.61 in1002.7 mb - 0.00 in0.0 mm 0.07 in1.8 mm
03:05 PM 58.2°F14.6°C 47.7°F8.7°C 68% 12.7 mph WSW20.4 kmh WSW 20.7 mph33.3 kmh 29.61 in1002.7 mb - 0.00 in0.0 mm 0.07 in1.8 mm
03:10 PM 58.6°F14.8°C 47.2°F8.4°C 66% 15.0 mph WSW24.1 kmh WSW 19.6 mph31.5 kmh 29.62 in1003.0 mb - 0.00 in0.0 mm 0.07 in1.8 mm
03:15 PM 58.3°F14.6°C 46.1°F7.8°C 64% 13.8 mph WSW22.2 kmh WSW 23.0 mph37.0 kmh 29.62 in1003.0 mb - 0.00 in0.0 mm 0.07 in1.8 mm
03:20 PM 58.3°F14.6°C 46.2°F7.9°C 64% 17.3 mph WSW27.8 kmh WSW 20.7 mph33.3 kmh 29.62 in1003.0 mb - 0.00 in0.0 mm 0.07 in1.8 mm
03:25 PM 58.6°F14.8°C 46.0°F7.8°C 63% 15.0 mph WSW24.1 kmh WSW 20.7 mph33.3 kmh 29.62 in1003.0 mb - 0.00 in0.0 mm 0.07 in1.8 mm
03:30 PM 58.9°F14.9°C 46.7°F8.2°C 64% 12.7 mph WSW20.4 kmh WSW 19.6 mph31.5 kmh 29.62 in1003.0 mb - 0.00 in0.0 mm 0.07 in1.8 mm
03:35 PM 58.9°F14.9°C 46.7°F8.2°C 64% 16.1 mph WSW25.9 kmh WSW 23.0 mph37.0 kmh 29.62 in1003.0 mb - 0.00 in0.0 mm 0.07 in1.8 mm
03:40 PM 58.4°F14.7°C 46.3°F7.9°C 64% 11.5 mph WSW18.5 kmh WSW 16.1 mph25.9 kmh 29.63 in1003.4 mb - 0.00 in0.0 mm 0.07 in1.8 mm
03:45 PM 57.7°F14.3°C 46.4°F8.0°C 66% 13.8 mph WSW22.2 kmh WSW 25.3 mph40.7 kmh 29.63 in1003.4 mb - 0.00 in0.0 mm 0.07 in1.8 mm
03:50 PM 57.2°F14.0°C 46.7°F8.2°C 68% 12.7 mph WSW20.4 kmh WSW 18.4 mph29.6 kmh 29.64 in1003.7 mb - 0.00 in0.0 mm 0.07 in1.8 mm
03:55 PM 57.4°F14.1°C 46.5°F8.1°C 67% 12.7 mph WSW20.4 kmh WSW 17.3 mph27.8 kmh 29.64 in1003.7 mb - 0.00 in0.0 mm 0.07 in1.8 mm
04:00 PM 57.3°F14.1°C 46.4°F8.0°C 67% 15.0 mph WSW24.1 kmh WSW 29.9 mph48.1 kmh 29.65 in1004.1 mb - 0.00 in0.0 mm 0.07 in1.8 mm
04:05 PM 56.8°F13.8°C 46.3°F7.9°C 68% 16.1 mph SW25.9 kmh SW 26.5 mph42.6 kmh 29.65 in1004.1 mb - 0.00 in0.0 mm 0.07 in1.8 mm
04:10 PM 56.5°F13.6°C 46.4°F8.0°C 69% 10.4 mph WSW16.7 kmh WSW 15.0 mph24.1 kmh 29.65 in1004.1 mb - 0.00 in0.0 mm 0.07 in1.8 mm
04:15 PM 57.1°F13.9°C 47.0°F8.3°C 69% 9.2 mph WSW14.8 kmh WSW 12.7 mph20.4 kmh 29.65 in1004.1 mb - 0.00 in0.0 mm 0.07 in1.8 mm
04:20 PM 57.3°F14.1°C 46.4°F8.0°C 67% 9.2 mph WSW14.8 kmh WSW 19.6 mph31.5 kmh 29.65 in1004.1 mb - 0.00 in0.0 mm 0.07 in1.8 mm
04:25 PM 57.2°F14.0°C 45.9°F7.7°C 66% 11.5 mph WSW18.5 kmh WSW 17.3 mph27.8 kmh 29.65 in1004.1 mb - 0.00 in0.0 mm 0.07 in1.8 mm
04:30 PM 56.9°F13.8°C 45.7°F7.6°C 66% 12.7 mph WSW20.4 kmh WSW 18.4 mph29.6 kmh 29.66 in1004.4 mb - 0.00 in0.0 mm 0.07 in1.8 mm
04:35 PM 56.7°F13.7°C 46.3°F7.9°C 68% 10.4 mph WSW16.7 kmh WSW 17.3 mph27.8 kmh 29.66 in1004.4 mb - 0.00 in0.0 mm 0.07 in1.8 mm
04:40 PM 56.5°F13.6°C 46.9°F8.3°C 70% 12.7 mph W20.4 kmh W 17.3 mph27.8 kmh 29.66 in1004.4 mb - 0.00 in0.0 mm 0.07 in1.8 mm
04:45 PM 55.9°F13.3°C 46.7°F8.2°C 71% 6.9 mph WNW11.1 kmh WNW 11.5 mph18.5 kmh 29.67 in1004.7 mb - 0.00 in0.0 mm 0.07 in1.8 mm
04:50 PM 55.4°F13.0°C 46.5°F8.1°C 72% 8.1 mph W13.0 kmh W 18.4 mph29.6 kmh 29.67 in1004.7 mb - 0.00 in0.0 mm 0.07 in1.8 mm
04:55 PM 55.4°F13.0°C 46.2°F7.9°C 71% 6.9 mph W11.1 kmh W 13.8 mph22.2 kmh 29.67 in1004.7 mb - 0.00 in0.0 mm 0.07 in1.8 mm
05:00 PM 56.3°F13.5°C 46.7°F8.2°C 70% 9.2 mph W14.8 kmh W 21.9 mph35.2 kmh 29.67 in1004.7 mb - 0.00 in0.0 mm 0.07 in1.8 mm
05:05 PM 57.0°F13.9°C 46.1°F7.8°C 67% 11.5 mph WSW18.5 kmh WSW 15.0 mph24.1 kmh 29.67 in1004.7 mb - 0.00 in0.0 mm 0.07 in1.8 mm
05:10 PM 57.3°F14.1°C 45.6°F7.6°C 65% 12.7 mph WSW20.4 kmh WSW 18.4 mph29.6 kmh 29.67 in1004.7 mb - 0.00 in0.0 mm 0.07 in1.8 mm
05:15 PM 57.6°F14.2°C 45.9°F7.7°C 65% 8.1 mph WSW13.0 kmh WSW 16.1 mph25.9 kmh 29.67 in1004.7 mb - 0.00 in0.0 mm 0.07 in1.8 mm
05:20 PM 57.9°F14.4°C 45.4°F7.4°C 63% 9.2 mph SW14.8 kmh SW 19.6 mph31.5 kmh 29.68 in1005.1 mb - 0.00 in0.0 mm 0.07 in1.8 mm
05:25 PM 58.3°F14.6°C 45.3°F7.4°C 62% 10.4 mph WSW16.7 kmh WSW 16.1 mph25.9 kmh 29.68 in1005.1 mb - 0.00 in0.0 mm 0.07 in1.8 mm
05:30 PM 58.2°F14.6°C 44.8°F7.1°C 61% 15.0 mph W24.1 kmh W 20.7 mph33.3 kmh 29.68 in1005.1 mb - 0.00 in0.0 mm 0.07 in1.8 mm
05:35 PM 57.8°F14.3°C 44.9°F7.2°C 62% 9.2 mph WSW14.8 kmh WSW 15.0 mph24.1 kmh 29.68 in1005.1 mb - 0.00 in0.0 mm 0.07 in1.8 mm
05:40 PM 57.5°F14.2°C 44.6°F7.0°C 62% 9.2 mph WSW14.8 kmh WSW 18.4 mph29.6 kmh 29.68 in1005.1 mb - 0.00 in0.0 mm 0.07 in1.8 mm
05:45 PM 57.6°F14.2°C 45.1°F7.3°C 63% 18.4 mph WSW29.6 kmh WSW 29.9 mph48.1 kmh 29.69 in1005.4 mb - 0.00 in0.0 mm 0.07 in1.8 mm
05:50 PM 57.5°F14.2°C 44.1°F6.7°C 61% 13.8 mph WSW22.2 kmh WSW 17.3 mph27.8 kmh 29.69 in1005.4 mb - 0.00 in0.0 mm 0.07 in1.8 mm
05:55 PM 57.4°F14.1°C 43.6°F6.4°C 60% 13.8 mph WSW22.2 kmh WSW 18.4 mph29.6 kmh 29.69 in1005.4 mb - 0.00 in0.0 mm 0.07 in1.8 mm
06:00 PM 57.1°F13.9°C 44.2°F6.8°C 62% 10.4 mph WSW16.7 kmh WSW 17.3 mph27.8 kmh 29.69 in1005.4 mb - 0.00 in0.0 mm 0.07 in1.8 mm
06:05 PM 57.0°F13.9°C 44.1°F6.7°C 62% 10.4 mph WSW16.7 kmh WSW 13.8 mph22.2 kmh 29.70 in1005.8 mb - 0.00 in0.0 mm 0.07 in1.8 mm
06:10 PM 57.1°F13.9°C 44.6°F7.0°C 63% 11.5 mph WSW18.5 kmh WSW 15.0 mph24.1 kmh 29.70 in1005.8 mb - 0.00 in0.0 mm 0.07 in1.8 mm
06:15 PM 57.2°F14.0°C 44.7°F7.1°C 63% 12.7 mph WSW20.4 kmh WSW 16.1 mph25.9 kmh 29.70 in1005.8 mb - 0.00 in0.0 mm 0.07 in1.8 mm
06:20 PM 56.9°F13.8°C 44.8°F7.1°C 64% 10.4 mph WSW16.7 kmh WSW 13.8 mph22.2 kmh 29.70 in1005.8 mb - 0.00 in0.0 mm 0.07 in1.8 mm
06:25 PM 56.5°F13.6°C 44.8°F7.1°C 65% 9.2 mph WSW14.8 kmh WSW 16.1 mph25.9 kmh 29.70 in1005.8 mb - 0.00 in0.0 mm 0.07 in1.8 mm
06:30 PM 56.1°F13.4°C 44.5°F6.9°C 65% 9.2 mph SW14.8 kmh SW 18.4 mph29.6 kmh 29.71 in1006.1 mb - 0.00 in0.0 mm 0.07 in1.8 mm
06:35 PM 56.3°F13.5°C 44.7°F7.1°C 65% 8.1 mph WSW13.0 kmh WSW 11.5 mph18.5 kmh 29.71 in1006.1 mb - 0.00 in0.0 mm 0.07 in1.8 mm
06:40 PM 56.3°F13.5°C 44.7°F7.1°C 65% 8.1 mph WSW13.0 kmh WSW 15.0 mph24.1 kmh 29.71 in1006.1 mb - 0.00 in0.0 mm 0.07 in1.8 mm
06:45 PM 56.1°F13.4°C 44.5°F6.9°C 65% 6.9 mph WSW11.1 kmh WSW 18.4 mph29.6 kmh 29.71 in1006.1 mb - 0.00 in0.0 mm 0.07 in1.8 mm
06:50 PM 55.8°F13.2°C 44.2°F6.8°C 65% 11.5 mph WSW18.5 kmh WSW 16.1 mph25.9 kmh 29.72 in1006.4 mb - 0.00 in0.0 mm 0.07 in1.8 mm
06:55 PM 55.7°F13.2°C 44.5°F6.9°C 66% 12.7 mph SW20.4 kmh SW 19.6 mph31.5 kmh 29.73 in1006.8 mb - 0.00 in0.0 mm 0.07 in1.8 mm
07:00 PM 55.3°F12.9°C 45.0°F7.2°C 68% 12.7 mph WSW20.4 kmh WSW 18.4 mph29.6 kmh 29.73 in1006.8 mb - 0.00 in0.0 mm 0.07 in1.8 mm
07:05 PM 54.9°F12.7°C 45.3°F7.4°C 70% 5.8 mph WSW9.3 kmh WSW 11.5 mph18.5 kmh 29.73 in1006.8 mb - 0.00 in0.0 mm 0.07 in1.8 mm
07:10 PM 54.6°F12.6°C 45.7°F7.6°C 72% 8.1 mph WSW13.0 kmh WSW 12.7 mph20.4 kmh 29.73 in1006.8 mb - 0.00 in0.0 mm 0.07 in1.8 mm
07:15 PM 54.4°F12.4°C 45.9°F7.7°C 73% 10.4 mph WSW16.7 kmh WSW 18.4 mph29.6 kmh 29.74 in1007.1 mb - 0.00 in0.0 mm 0.07 in1.8 mm
07:20 PM 54.1°F12.3°C 45.6°F7.6°C 73% 8.1 mph WSW13.0 kmh WSW 12.7 mph20.4 kmh 29.74 in1007.1 mb - 0.00 in0.0 mm 0.07 in1.8 mm
07:25 PM 53.8°F12.1°C 45.7°F7.6°C 74% 5.8 mph WSW9.3 kmh WSW 10.4 mph16.7 kmh 29.74 in1007.1 mb - 0.00 in0.0 mm 0.07 in1.8 mm
07:30 PM 53.6°F12.0°C 45.5°F7.5°C 74% 8.1 mph W13.0 kmh W 12.7 mph20.4 kmh 29.74 in1007.1 mb - 0.00 in0.0 mm 0.07 in1.8 mm
07:35 PM 53.3°F11.8°C 45.6°F7.6°C 75% 5.8 mph WSW9.3 kmh WSW 9.2 mph14.8 kmh 29.74 in1007.1 mb - 0.00 in0.0 mm 0.07 in1.8 mm
07:40 PM 53.1°F11.7°C 45.4°F7.4°C 75% 5.8 mph W9.3 kmh W 9.2 mph14.8 kmh 29.74 in1007.1 mb - 0.00 in0.0 mm 0.07 in1.8 mm
07:45 PM 53.0°F11.7°C 45.3°F7.4°C 75% 3.5 mph WSW5.6 kmh WSW 5.8 mph9.3 kmh 29.74 in1007.1 mb - 0.00 in0.0 mm 0.07 in1.8 mm
07:50 PM 53.1°F11.7°C 45.4°F7.4°C 75% 2.3 mph WSW3.7 kmh WSW 6.9 mph11.1 kmh 29.74 in1007.1 mb - 0.00 in0.0 mm 0.07 in1.8 mm
07:55 PM 53.1°F11.7°C 45.4°F7.4°C 75% 2.3 mph WSW3.7 kmh WSW 6.9 mph11.1 kmh 29.75 in1007.5 mb - 0.00 in0.0 mm 0.07 in1.8 mm
08:00 PM 53.1°F11.7°C 45.4°F7.4°C 75% 4.6 mph W7.4 kmh W 10.4 mph16.7 kmh 29.75 in1007.5 mb - 0.00 in0.0 mm 0.07 in1.8 mm
08:05 PM 53.0°F11.7°C 45.3°F7.4°C 75% 5.8 mph W9.3 kmh W 9.2 mph14.8 kmh 29.75 in1007.5 mb - 0.00 in0.0 mm 0.07 in1.8 mm
08:10 PM 52.8°F11.6°C 45.1°F7.3°C 75% 5.8 mph W9.3 kmh W 10.4 mph16.7 kmh 29.75 in1007.5 mb - 0.00 in0.0 mm 0.07 in1.8 mm
08:15 PM 52.7°F11.5°C 45.0°F7.2°C 75% 5.8 mph WSW9.3 kmh WSW 9.2 mph14.8 kmh 29.75 in1007.5 mb - 0.00 in0.0 mm 0.07 in1.8 mm
08:20 PM 52.5°F11.4°C 44.8°F7.1°C 75% 3.5 mph WSW5.6 kmh WSW 6.9 mph11.1 kmh 29.75 in1007.5 mb - 0.00 in0.0 mm 0.07 in1.8 mm
08:25 PM 52.2°F11.2°C 44.5°F6.9°C 75% 4.6 mph WSW7.4 kmh WSW 9.2 mph14.8 kmh 29.75 in1007.5 mb - 0.00 in0.0 mm 0.07 in1.8 mm
08:30 PM 52.0°F11.1°C 44.3°F6.8°C 75% 2.3 mph WSW3.7 kmh WSW 3.5 mph5.6 kmh 29.76 in1007.8 mb - 0.00 in0.0 mm 0.07 in1.8 mm
08:35 PM 51.9°F11.1°C 44.6°F7.0°C 76% 4.6 mph WSW7.4 kmh WSW 6.9 mph11.1 kmh 29.76 in1007.8 mb - 0.00 in0.0 mm 0.07 in1.8 mm
08:40 PM 51.9°F11.1°C 44.6°F7.0°C 76% 5.8 mph WSW9.3 kmh WSW 9.2 mph14.8 kmh 29.76 in1007.8 mb - 0.00 in0.0 mm 0.07 in1.8 mm
08:45 PM 52.0°F11.1°C 44.3°F6.8°C 75% 5.8 mph WSW9.3 kmh WSW 11.5 mph18.5 kmh 29.76 in1007.8 mb - 0.00 in0.0 mm 0.07 in1.8 mm
08:50 PM 52.2°F11.2°C 44.5°F6.9°C 75% 9.2 mph WSW14.8 kmh WSW 15.0 mph24.1 kmh 29.76 in1007.8 mb - 0.00 in0.0 mm 0.07 in1.8 mm
08:55 PM 52.3°F11.3°C 44.6°F7.0°C 75% 6.9 mph WSW11.1 kmh WSW 10.4 mph16.7 kmh 29.77 in1008.1 mb - 0.00 in0.0 mm 0.07 in1.8 mm
09:00 PM 52.3°F11.3°C 45.0°F7.2°C 76% 5.8 mph WSW9.3 kmh WSW 6.9 mph11.1 kmh 29.77 in1008.1 mb - 0.00 in0.0 mm 0.07 in1.8 mm
09:05 PM 52.2°F11.2°C 45.2°F7.3°C 77% 8.1 mph W13.0 kmh W 11.5 mph18.5 kmh 29.77 in1008.1 mb - 0.00 in0.0 mm 0.07 in1.8 mm
09:10 PM 52.0°F11.1°C 45.0°F7.2°C 77% 6.9 mph WSW11.1 kmh WSW 10.4 mph16.7 kmh 29.76 in1007.8 mb - 0.00 in0.0 mm 0.07 in1.8 mm
09:15 PM 51.7°F10.9°C 44.7°F7.1°C 77% 6.9 mph W11.1 kmh W 8.1 mph13.0 kmh 29.77 in1008.1 mb - 0.00 in0.0 mm 0.07 in1.8 mm
09:20 PM 51.4°F10.8°C 44.5°F6.9°C 77% 5.8 mph W9.3 kmh W 11.5 mph18.5 kmh 29.77 in1008.1 mb - 0.00 in0.0 mm 0.07 in1.8 mm
09:25 PM 51.3°F10.7°C 44.3°F6.8°C 77% 6.9 mph W11.1 kmh W 11.5 mph18.5 kmh 29.77 in1008.1 mb - 0.00 in0.0 mm 0.07 in1.8 mm
09:30 PM 51.1°F10.6°C 44.1°F6.7°C 77% 5.8 mph WNW9.3 kmh WNW 16.1 mph25.9 kmh 29.76 in1007.8 mb - 0.00 in0.0 mm 0.07 in1.8 mm
09:35 PM 50.9°F10.5°C 43.9°F6.6°C 77% 5.8 mph W9.3 kmh W 10.4 mph16.7 kmh 29.76 in1007.8 mb - 0.00 in0.0 mm 0.07 in1.8 mm
09:40 PM 50.7°F10.4°C 43.8°F6.6°C 77% 5.8 mph W9.3 kmh W 10.4 mph16.7 kmh 29.76 in1007.8 mb - 0.00 in0.0 mm 0.07 in1.8 mm
09:45 PM 50.5°F10.3°C 43.6°F6.4°C 77% 3.5 mph WNW5.6 kmh WNW 8.1 mph13.0 kmh 29.76 in1007.8 mb - 0.00 in0.0 mm 0.07 in1.8 mm
09:50 PM 50.3°F10.2°C 43.4°F6.3°C 77% 3.5 mph WNW5.6 kmh WNW 8.1 mph13.0 kmh 29.76 in1007.8 mb - 0.00 in0.0 mm 0.07 in1.8 mm
09:55 PM 50.2°F10.1°C 43.3°F6.3°C 77% 4.6 mph W7.4 kmh W 6.9 mph11.1 kmh 29.76 in1007.8 mb - 0.00 in0.0 mm 0.07 in1.8 mm
10:00 PM 50.1°F10.1°C 43.2°F6.2°C 77% 3.5 mph W5.6 kmh W 6.9 mph11.1 kmh 29.76 in1007.8 mb - 0.00 in0.0 mm 0.07 in1.8 mm
10:05 PM 50.2°F10.1°C 43.3°F6.3°C 77% 5.8 mph W9.3 kmh W 10.4 mph16.7 kmh 29.76 in1007.8 mb - 0.00 in0.0 mm 0.07 in1.8 mm
10:10 PM 50.2°F10.1°C 43.3°F6.3°C 77% 5.8 mph WNW9.3 kmh WNW 8.1 mph13.0 kmh 29.76 in1007.8 mb - 0.00 in0.0 mm 0.07 in1.8 mm
10:15 PM 50.2°F10.1°C 43.3°F6.3°C 77% 2.3 mph W3.7 kmh W 5.8 mph9.3 kmh 29.76 in1007.8 mb - 0.00 in0.0 mm 0.07 in1.8 mm
10:20 PM 50.1°F10.1°C 43.2°F6.2°C 77% 4.6 mph W7.4 kmh W 6.9 mph11.1 kmh 29.76 in1007.8 mb - 0.00 in0.0 mm 0.07 in1.8 mm
10:25 PM 50.0°F10.0°C 43.1°F6.2°C 77% 2.3 mph WNW3.7 kmh WNW 3.5 mph5.6 kmh 29.76 in1007.8 mb - 0.00 in0.0 mm 0.07 in1.8 mm
10:30 PM 49.9°F9.9°C 43.0°F6.1°C 77% 2.3 mph WNW3.7 kmh WNW 3.5 mph5.6 kmh 29.76 in1007.8 mb - 0.00 in0.0 mm 0.07 in1.8 mm
10:35 PM 49.7°F9.8°C 42.8°F6.0°C 77% 2.3 mph WNW3.7 kmh WNW 3.5 mph5.6 kmh 29.76 in1007.8 mb - 0.00 in0.0 mm 0.07 in1.8 mm
10:40 PM 49.5°F9.7°C 42.9°F6.1°C 78% 2.3 mph WNW3.7 kmh WNW 3.5 mph5.6 kmh 29.77 in1008.1 mb - 0.00 in0.0 mm 0.07 in1.8 mm
10:45 PM 49.3°F9.6°C 42.7°F5.9°C 78% 1.2 mph WNW1.9 kmh WNW 2.3 mph3.7 kmh 29.77 in1008.1 mb - 0.00 in0.0 mm 0.07 in1.8 mm
10:50 PM 49.1°F9.5°C 42.5°F5.8°C 78% 2.3 mph WNW3.7 kmh WNW 3.5 mph5.6 kmh 29.77 in1008.1 mb - 0.00 in0.0 mm 0.07 in1.8 mm
10:55 PM 49.1°F9.5°C 42.2°F5.7°C 77% 2.3 mph WNW3.7 kmh WNW 3.5 mph5.6 kmh 29.77 in1008.1 mb - 0.00 in0.0 mm 0.07 in1.8 mm
11:00 PM 49.1°F9.5°C 42.2°F5.7°C 77% 2.3 mph W3.7 kmh W 3.5 mph5.6 kmh 29.77 in1008.1 mb - 0.00 in0.0 mm 0.12 in3.0 mm
11:05 PM 49.2°F9.6°C 42.6°F5.9°C 78% 2.3 mph WSW3.7 kmh WSW 3.5 mph5.6 kmh 29.77 in1008.1 mb - 0.00 in0.0 mm 0.12 in3.0 mm
11:10 PM 49.5°F9.7°C 42.9°F6.1°C 78% 2.3 mph SW3.7 kmh SW 4.6 mph7.4 kmh 29.77 in1008.1 mb - 0.00 in0.0 mm 0.12 in3.0 mm
11:15 PM 49.7°F9.8°C 42.8°F6.0°C 77% 1.2 mph WSW1.9 kmh WSW 3.5 mph5.6 kmh 29.77 in1008.1 mb - 0.00 in0.0 mm 0.12 in3.0 mm
11:20 PM 49.9°F9.9°C 43.0°F6.1°C 77% 2.3 mph W3.7 kmh W 3.5 mph5.6 kmh 29.77 in1008.1 mb - 0.00 in0.0 mm 0.12 in3.0 mm
11:25 PM 50.0°F10.0°C 43.4°F6.3°C 78% 2.3 mph W3.7 kmh W 3.5 mph5.6 kmh 29.78 in1008.5 mb - 0.00 in0.0 mm 0.12 in3.0 mm
11:30 PM 50.1°F10.1°C 43.5°F6.4°C 78% 2.3 mph W3.7 kmh W 3.5 mph5.6 kmh 29.78 in1008.5 mb - 0.00 in0.0 mm 0.12 in3.0 mm
11:35 PM 50.1°F10.1°C 43.2°F6.2°C 77% 2.3 mph WSW3.7 kmh WSW 3.5 mph5.6 kmh 29.78 in1008.5 mb - 0.00 in0.0 mm 0.12 in3.0 mm
11:40 PM 50.1°F10.1°C 43.2°F6.2°C 77% 3.5 mph W5.6 kmh W 6.9 mph11.1 kmh 29.77 in1008.1 mb - 0.00 in0.0 mm 0.12 in3.0 mm
11:45 PM 50.1°F10.1°C 43.2°F6.2°C 77% 5.8 mph W9.3 kmh W 8.1 mph13.0 kmh 29.78 in1008.5 mb - 0.00 in0.0 mm 0.12 in3.0 mm
11:50 PM 50.1°F10.1°C 43.2°F6.2°C 77% 3.5 mph WSW5.6 kmh WSW 5.8 mph9.3 kmh 29.77 in1008.1 mb - 0.00 in0.0 mm 0.12 in3.0 mm
11:55 PM 50.2°F10.1°C 43.3°F6.3°C 77% 3.5 mph WNW5.6 kmh WNW 6.9 mph11.1 kmh 29.77 in1008.1 mb - 0.01 in0.3 mm 0.01 in0.3 mm